sensor_id;sensor_type;location;lat;lon;timestamp;pressure;altitude;pressure_sealevel;temperature;humidity
62928;BME280;51070;52.236;-0.892;2022-10-16T00:01:20;99495.11;;;11.43;72.44
62928;BME280;51070;52.236;-0.892;2022-10-16T00:03:46;99495.82;;;11.44;72.35
62928;BME280;51070;52.236;-0.892;2022-10-16T00:06:14;99503.42;;;11.45;72.25
62928;BME280;51070;52.236;-0.892;2022-10-16T00:08:43;99500.13;;;11.44;72.06
62928;BME280;51070;52.236;-0.892;2022-10-16T00:11:17;99497.02;;;11.43;71.96
62928;BME280;51070;52.236;-0.892;2022-10-16T00:13:44;99495.08;;;11.40;72.03
62928;BME280;51070;52.236;-0.892;2022-10-16T00:16:10;99495.59;;;11.40;72.04
62928;BME280;51070;52.236;-0.892;2022-10-16T00:18:36;99495.06;;;11.38;72.00
62928;BME280;51070;52.236;-0.892;2022-10-16T00:21:08;99491.23;;;11.35;71.88
62928;BME280;51070;52.236;-0.892;2022-10-16T00:23:34;99495.19;;;11.33;72.08
62928;BME280;51070;52.236;-0.892;2022-10-16T00:26:02;99493.07;;;11.28;72.06
62928;BME280;51070;52.236;-0.892;2022-10-16T00:28:28;99501.86;;;11.26;72.09
62928;BME280;51070;52.236;-0.892;2022-10-16T00:30:54;99503.73;;;11.24;72.36
62928;BME280;51070;52.236;-0.892;2022-10-16T00:33:20;99497.50;;;11.22;72.32
62928;BME280;51070;52.236;-0.892;2022-10-16T00:35:46;99497.64;;;11.19;72.31
62928;BME280;51070;52.236;-0.892;2022-10-16T00:38:11;99502.13;;;11.17;72.62
62928;BME280;51070;52.236;-0.892;2022-10-16T00:40:37;99498.80;;;11.15;72.61
62928;BME280;51070;52.236;-0.892;2022-10-16T00:43:02;99508.29;;;11.11;72.78
62928;BME280;51070;52.236;-0.892;2022-10-16T00:45:27;99509.13;;;11.09;72.97
62928;BME280;51070;52.236;-0.892;2022-10-16T00:47:55;99509.27;;;11.08;72.88
62928;BME280;51070;52.236;-0.892;2022-10-16T00:50:27;99508.75;;;11.06;73.12
62928;BME280;51070;52.236;-0.892;2022-10-16T00:52:54;99518.92;;;11.04;73.09
62928;BME280;51070;52.236;-0.892;2022-10-16T00:55:20;99522.69;;;11.02;73.15
62928;BME280;51070;52.236;-0.892;2022-10-16T00:57:46;99524.23;;;11.00;73.16
62928;BME280;51070;52.236;-0.892;2022-10-16T01:00:17;99523.16;;;10.98;73.37
62928;BME280;51070;52.236;-0.892;2022-10-16T01:02:43;99521.60;;;10.97;73.47
62928;BME280;51070;52.236;-0.892;2022-10-16T01:05:09;99515.20;;;10.97;73.23
62928;BME280;51070;52.236;-0.892;2022-10-16T01:07:58;99519.34;;;10.96;73.13
62928;BME280;51070;52.236;-0.892;2022-10-16T01:10:37;99524.02;;;10.96;73.24
62928;BME280;51070;52.236;-0.892;2022-10-16T01:13:27;99527.98;;;10.94;73.43
62928;BME280;51070;52.236;-0.892;2022-10-16T01:16:05;99530.03;;;10.93;73.60
62928;BME280;51070;52.236;-0.892;2022-10-16T01:18:52;99532.80;;;10.93;73.53
62928;BME280;51070;52.236;-0.892;2022-10-16T01:21:24;99529.32;;;10.92;73.49
62928;BME280;51070;52.236;-0.892;2022-10-16T01:24:33;99530.17;;;10.91;73.52
62928;BME280;51070;52.236;-0.892;2022-10-16T01:29:54;99531.54;;;10.88;73.87
62928;BME280;51070;52.236;-0.892;2022-10-16T01:32:36;99531.34;;;10.87;74.00
62928;BME280;51070;52.236;-0.892;2022-10-16T01:40:05;99540.50;;;10.86;74.00
62928;BME280;51070;52.236;-0.892;2022-10-16T01:42:36;99541.67;;;10.84;74.12
62928;BME280;51070;52.236;-0.892;2022-10-16T01:45:05;99545.81;;;10.83;74.27
62928;BME280;51070;52.236;-0.892;2022-10-16T01:47:33;99552.71;;;10.82;74.13
62928;BME280;51070;52.236;-0.892;2022-10-16T01:50:02;99562.25;;;10.84;74.05
62928;BME280;51070;52.236;-0.892;2022-10-16T01:52:32;99575.22;;;10.84;74.15
62928;BME280;51070;52.236;-0.892;2022-10-16T01:55:02;99573.49;;;10.85;74.30
62928;BME280;51070;52.236;-0.892;2022-10-16T01:57:29;99573.35;;;10.87;74.53
62928;BME280;51070;52.236;-0.892;2022-10-16T02:00:01;99565.95;;;10.89;74.86
62928;BME280;51070;52.236;-0.892;2022-10-16T02:02:30;99568.89;;;10.92;74.90
62928;BME280;51070;52.236;-0.892;2022-10-16T02:05:12;99566.67;;;10.93;74.99
62928;BME280;51070;52.236;-0.892;2022-10-16T02:07:41;99569.14;;;10.95;75.15
62928;BME280;51070;52.236;-0.892;2022-10-16T02:10:08;99572.59;;;10.98;74.99
62928;BME280;51070;52.236;-0.892;2022-10-16T02:12:37;99584.76;;;11.00;75.00
62928;BME280;51070;52.236;-0.892;2022-10-16T02:15:06;99587.73;;;11.04;74.87
62928;BME280;51070;52.236;-0.892;2022-10-16T02:17:32;99583.44;;;11.07;74.64
62928;BME280;51070;52.236;-0.892;2022-10-16T02:19:58;99584.34;;;11.09;74.46
62928;BME280;51070;52.236;-0.892;2022-10-16T02:22:32;99586.94;;;11.10;74.34
62928;BME280;51070;52.236;-0.892;2022-10-16T02:25:04;99592.80;;;11.09;74.16
62928;BME280;51070;52.236;-0.892;2022-10-16T02:27:48;99600.55;;;11.07;74.32
62928;BME280;51070;52.236;-0.892;2022-10-16T02:32:49;99613.98;;;11.03;74.69
62928;BME280;51070;52.236;-0.892;2022-10-16T02:35:17;99618.11;;;11.02;74.82
62928;BME280;51070;52.236;-0.892;2022-10-16T02:37:43;99622.27;;;11.01;74.67
62928;BME280;51070;52.236;-0.892;2022-10-16T02:40:10;99628.81;;;11.00;74.92
62928;BME280;51070;52.236;-0.892;2022-10-16T02:42:39;99633.96;;;10.97;74.91
62928;BME280;51070;52.236;-0.892;2022-10-16T02:45:09;99633.77;;;10.95;75.25
62928;BME280;51070;52.236;-0.892;2022-10-16T02:47:36;99637.90;;;10.93;75.24
62928;BME280;51070;52.236;-0.892;2022-10-16T02:50:01;99637.90;;;10.94;75.48
62928;BME280;51070;52.236;-0.892;2022-10-16T02:52:28;99648.30;;;10.96;75.50
62928;BME280;51070;52.236;-0.892;2022-10-16T02:54:53;99645.54;;;10.97;75.70
62928;BME280;51070;52.236;-0.892;2022-10-16T02:57:18;99644.38;;;11.00;75.84
62928;BME280;51070;52.236;-0.892;2022-10-16T02:59:44;99652.01;;;11.01;76.18
62928;BME280;51070;52.236;-0.892;2022-10-16T03:02:10;99661.67;;;11.02;76.37
62928;BME280;51070;52.236;-0.892;2022-10-16T03:04:36;99659.98;;;11.04;76.62
62928;BME280;51070;52.236;-0.892;2022-10-16T03:07:02;99656.02;;;11.05;77.08
62928;BME280;51070;52.236;-0.892;2022-10-16T03:09:27;99646.33;;;11.04;77.40
62928;BME280;51070;52.236;-0.892;2022-10-16T03:11:52;99647.66;;;11.00;77.69
62928;BME280;51070;52.236;-0.892;2022-10-16T03:14:18;99651.58;;;10.94;77.95
62928;BME280;51070;52.236;-0.892;2022-10-16T03:16:44;99656.14;;;10.88;77.86
62928;BME280;51070;52.236;-0.892;2022-10-16T03:19:09;99659.35;;;10.83;78.42
62928;BME280;51070;52.236;-0.892;2022-10-16T03:21:34;99662.75;;;10.78;78.44
62928;BME280;51070;52.236;-0.892;2022-10-16T03:24:00;99668.25;;;10.77;78.27
62928;BME280;51070;52.236;-0.892;2022-10-16T03:26:25;99669.96;;;10.76;78.43
62928;BME280;51070;52.236;-0.892;2022-10-16T03:28:51;99670.98;;;10.74;78.60
62928;BME280;51070;52.236;-0.892;2022-10-16T03:31:16;99677.84;;;10.71;78.83
62928;BME280;51070;52.236;-0.892;2022-10-16T03:33:42;99680.93;;;10.70;78.71
62928;BME280;51070;52.236;-0.892;2022-10-16T03:36:07;99686.28;;;10.69;78.73
62928;BME280;51070;52.236;-0.892;2022-10-16T03:38:32;99692.85;;;10.69;78.46
62928;BME280;51070;52.236;-0.892;2022-10-16T03:40:58;99697.52;;;10.69;78.78
62928;BME280;51070;52.236;-0.892;2022-10-16T03:43:23;99701.66;;;10.68;78.50
62928;BME280;51070;52.236;-0.892;2022-10-16T03:45:52;99708.21;;;10.68;78.46
62928;BME280;51070;52.236;-0.892;2022-10-16T03:48:18;99716.29;;;10.66;78.25
62928;BME280;51070;52.236;-0.892;2022-10-16T03:50:44;99716.08;;;10.63;78.14
62928;BME280;51070;52.236;-0.892;2022-10-16T03:53:11;99717.08;;;10.61;78.19
62928;BME280;51070;52.236;-0.892;2022-10-16T03:55:37;99720.86;;;10.60;78.05
62928;BME280;51070;52.236;-0.892;2022-10-16T03:58:02;99723.79;;;10.60;78.08
62928;BME280;51070;52.236;-0.892;2022-10-16T04:00:27;99729.13;;;10.59;77.97
62928;BME280;51070;52.236;-0.892;2022-10-16T04:02:53;99733.27;;;10.58;77.87
62928;BME280;51070;52.236;-0.892;2022-10-16T04:05:18;99737.05;;;10.57;77.78
62928;BME280;51070;52.236;-0.892;2022-10-16T04:07:44;99742.90;;;10.56;77.76
62928;BME280;51070;52.236;-0.892;2022-10-16T04:10:09;99745.27;;;10.52;77.78
62928;BME280;51070;52.236;-0.892;2022-10-16T04:12:35;99752.67;;;10.50;77.75
62928;BME280;51070;52.236;-0.892;2022-10-16T04:15:01;99755.23;;;10.49;77.71
62928;BME280;51070;52.236;-0.892;2022-10-16T04:17:26;99762.47;;;10.48;77.84
62928;BME280;51070;52.236;-0.892;2022-10-16T04:19:51;99770.05;;;10.47;77.75
62928;BME280;51070;52.236;-0.892;2022-10-16T04:22:17;99776.77;;;10.45;77.80
62928;BME280;51070;52.236;-0.892;2022-10-16T04:24:42;99783.80;;;10.43;77.91
62928;BME280;51070;52.236;-0.892;2022-10-16T04:27:07;99791.02;;;10.41;77.94
62928;BME280;51070;52.236;-0.892;2022-10-16T04:29:33;99795.11;;;10.39;78.01
62928;BME280;51070;52.236;-0.892;2022-10-16T04:31:58;99799.73;;;10.36;77.99
62928;BME280;51070;52.236;-0.892;2022-10-16T04:34:24;99806.77;;;10.33;78.08
62928;BME280;51070;52.236;-0.892;2022-10-16T04:36:49;99808.98;;;10.32;78.25
62928;BME280;51070;52.236;-0.892;2022-10-16T04:39:15;99814.84;;;10.32;78.39
62928;BME280;51070;52.236;-0.892;2022-10-16T04:41:41;99818.12;;;10.32;78.51
62928;BME280;51070;52.236;-0.892;2022-10-16T04:44:07;99822.44;;;10.31;78.38
62928;BME280;51070;52.236;-0.892;2022-10-16T04:46:33;99829.34;;;10.30;78.45
62928;BME280;51070;52.236;-0.892;2022-10-16T04:48:59;99834.83;;;10.29;78.34
62928;BME280;51070;52.236;-0.892;2022-10-16T04:51:24;99838.76;;;10.27;78.49
62928;BME280;51070;52.236;-0.892;2022-10-16T04:53:51;99842.36;;;10.25;78.35
62928;BME280;51070;52.236;-0.892;2022-10-16T04:56:17;99843.86;;;10.23;78.67
62928;BME280;51070;52.236;-0.892;2022-10-16T04:58:43;99848.64;;;10.21;78.60
62928;BME280;51070;52.236;-0.892;2022-10-16T05:01:08;99848.81;;;10.20;78.78
62928;BME280;51070;52.236;-0.892;2022-10-16T05:03:34;99851.39;;;10.19;78.75
62928;BME280;51070;52.236;-0.892;2022-10-16T05:05:59;99857.57;;;10.17;78.84
62928;BME280;51070;52.236;-0.892;2022-10-16T05:08:25;99867.52;;;10.16;78.95
62928;BME280;51070;52.236;-0.892;2022-10-16T05:10:50;99873.86;;;10.14;79.15
62928;BME280;51070;52.236;-0.892;2022-10-16T05:13:15;99877.95;;;10.11;79.07
62928;BME280;51070;52.236;-0.892;2022-10-16T05:15:41;99876.36;;;10.09;79.09
62928;BME280;51070;52.236;-0.892;2022-10-16T05:18:06;99886.02;;;10.08;79.28
62928;BME280;51070;52.236;-0.892;2022-10-16T05:20:32;99889.65;;;10.08;79.29
62928;BME280;51070;52.236;-0.892;2022-10-16T05:22:57;99890.28;;;10.06;79.38
62928;BME280;51070;52.236;-0.892;2022-10-16T05:25:24;99902.85;;;10.04;79.36
62928;BME280;51070;52.236;-0.892;2022-10-16T05:27:49;99912.63;;;10.02;79.59
62928;BME280;51070;52.236;-0.892;2022-10-16T05:30:18;99915.14;;;9.99;79.55
62928;BME280;51070;52.236;-0.892;2022-10-16T05:32:48;99919.29;;;9.98;79.46
62928;BME280;51070;52.236;-0.892;2022-10-16T05:35:14;99925.67;;;9.98;79.76
62928;BME280;51070;52.236;-0.892;2022-10-16T05:37:39;99929.63;;;9.98;79.77
62928;BME280;51070;52.236;-0.892;2022-10-16T05:40:05;99936.51;;;9.96;79.73
62928;BME280;51070;52.236;-0.892;2022-10-16T05:42:31;99942.01;;;9.96;79.90
62928;BME280;51070;52.236;-0.892;2022-10-16T05:44:56;99945.10;;;9.95;79.91
62928;BME280;51070;52.236;-0.892;2022-10-16T05:47:22;99952.98;;;9.92;80.02
62928;BME280;51070;52.236;-0.892;2022-10-16T05:49:47;99954.14;;;9.90;79.84
62928;BME280;51070;52.236;-0.892;2022-10-16T05:52:13;99954.41;;;9.87;80.10
62928;BME280;51070;52.236;-0.892;2022-10-16T05:54:38;99961.09;;;9.85;80.03
62928;BME280;51070;52.236;-0.892;2022-10-16T05:57:03;99963.63;;;9.83;80.24
62928;BME280;51070;52.236;-0.892;2022-10-16T05:59:31;99965.68;;;9.81;80.09
62928;BME280;51070;52.236;-0.892;2022-10-16T06:01:56;99962.73;;;9.81;80.16
62928;BME280;51070;52.236;-0.892;2022-10-16T06:04:22;99968.54;;;9.79;80.06
62928;BME280;51070;52.236;-0.892;2022-10-16T06:06:48;99972.48;;;9.78;80.28
62928;BME280;51070;52.236;-0.892;2022-10-16T06:09:13;99980.05;;;9.77;80.50
62928;BME280;51070;52.236;-0.892;2022-10-16T06:11:38;99980.38;;;9.76;80.35
62928;BME280;51070;52.236;-0.892;2022-10-16T06:14:04;99990.69;;;9.74;80.46
62928;BME280;51070;52.236;-0.892;2022-10-16T06:16:33;99998.21;;;9.71;80.43
62928;BME280;51070;52.236;-0.892;2022-10-16T06:19:00;99997.96;;;9.68;80.62
62928;BME280;51070;52.236;-0.892;2022-10-16T06:21:26;100004.66;;;9.67;80.71
62928;BME280;51070;52.236;-0.892;2022-10-16T06:23:53;100010.52;;;9.67;80.89
62928;BME280;51070;52.236;-0.892;2022-10-16T06:26:22;100017.06;;;9.66;80.86
62928;BME280;51070;52.236;-0.892;2022-10-16T06:28:48;100021.39;;;9.65;81.20
62928;BME280;51070;52.236;-0.892;2022-10-16T06:31:14;100025.36;;;9.67;81.36
62928;BME280;51070;52.236;-0.892;2022-10-16T06:33:41;100032.64;;;9.68;81.32
62928;BME280;51070;52.236;-0.892;2022-10-16T06:36:11;100037.46;;;9.67;81.35
62928;BME280;51070;52.236;-0.892;2022-10-16T06:38:38;100038.98;;;9.66;81.38
62928;BME280;51070;52.236;-0.892;2022-10-16T06:41:05;100041.91;;;9.65;81.59
62928;BME280;51070;52.236;-0.892;2022-10-16T06:43:31;100044.77;;;9.63;81.91
62928;BME280;51070;52.236;-0.892;2022-10-16T06:46:04;100047.45;;;9.59;82.20
62928;BME280;51070;52.236;-0.892;2022-10-16T06:48:33;100055.71;;;9.59;82.00
62928;BME280;51070;52.236;-0.892;2022-10-16T06:53:36;100073.52;;;9.60;82.30
62928;BME280;51070;52.236;-0.892;2022-10-16T06:56:12;100075.44;;;9.62;82.35
62928;BME280;51070;52.236;-0.892;2022-10-16T06:58:39;100076.36;;;9.64;82.29
62928;BME280;51070;52.236;-0.892;2022-10-16T07:01:05;100077.11;;;9.66;82.25
62928;BME280;51070;52.236;-0.892;2022-10-16T07:03:32;100082.70;;;9.69;82.23
62928;BME280;51070;52.236;-0.892;2022-10-16T07:06:01;100083.27;;;9.71;82.43
62928;BME280;51070;52.236;-0.892;2022-10-16T07:08:31;100087.77;;;9.71;82.10
62928;BME280;51070;52.236;-0.892;2022-10-16T07:11:08;100086.48;;;9.68;82.30
62928;BME280;51070;52.236;-0.892;2022-10-16T07:13:35;100090.89;;;9.65;82.44
62928;BME280;51070;52.236;-0.892;2022-10-16T07:16:20;100096.23;;;9.65;82.73
62928;BME280;51070;52.236;-0.892;2022-10-16T07:18:46;100093.96;;;9.64;82.55
62928;BME280;51070;52.236;-0.892;2022-10-16T07:21:16;100098.45;;;9.64;82.74
62928;BME280;51070;52.236;-0.892;2022-10-16T07:23:42;100097.80;;;9.65;82.88
62928;BME280;51070;52.236;-0.892;2022-10-16T07:26:09;100100.13;;;9.69;82.78
62928;BME280;51070;52.236;-0.892;2022-10-16T07:28:35;100104.35;;;9.72;82.57
62928;BME280;51070;52.236;-0.892;2022-10-16T07:31:05;100112.69;;;9.75;82.83
62928;BME280;51070;52.236;-0.892;2022-10-16T07:33:32;100121.36;;;9.77;82.59
62928;BME280;51070;52.236;-0.892;2022-10-16T07:35:58;100125.02;;;9.78;82.44
62928;BME280;51070;52.236;-0.892;2022-10-16T07:38:24;100127.95;;;9.78;82.45
62928;BME280;51070;52.236;-0.892;2022-10-16T07:40:56;100128.52;;;9.80;82.63
62928;BME280;51070;52.236;-0.892;2022-10-16T07:43:23;100131.68;;;9.81;82.34
62928;BME280;51070;52.236;-0.892;2022-10-16T07:45:50;100134.98;;;9.82;82.24
62928;BME280;51070;52.236;-0.892;2022-10-16T07:48:16;100141.89;;;9.83;82.30
62928;BME280;51070;52.236;-0.892;2022-10-16T07:50:43;100151.23;;;9.84;82.36
62928;BME280;51070;52.236;-0.892;2022-10-16T07:53:08;100157.86;;;9.86;82.28
62928;BME280;51070;52.236;-0.892;2022-10-16T07:55:34;100168.94;;;9.87;82.39
62928;BME280;51070;52.236;-0.892;2022-10-16T07:57:59;100172.09;;;9.90;82.73
62928;BME280;51070;52.236;-0.892;2022-10-16T08:00:24;100176.86;;;9.93;82.57
62928;BME280;51070;52.236;-0.892;2022-10-16T08:02:50;100178.41;;;9.94;82.63
62928;BME280;51070;52.236;-0.892;2022-10-16T08:05:15;100185.35;;;9.95;82.67
62928;BME280;51070;52.236;-0.892;2022-10-16T08:07:41;100193.02;;;9.97;82.52
62928;BME280;51070;52.236;-0.892;2022-10-16T08:10:10;100198.75;;;9.99;82.63
62928;BME280;51070;52.236;-0.892;2022-10-16T08:12:40;100202.80;;;10.02;82.81
62928;BME280;51070;52.236;-0.892;2022-10-16T08:15:07;100206.68;;;10.04;82.76
62928;BME280;51070;52.236;-0.892;2022-10-16T08:17:32;100210.06;;;10.09;82.76
62928;BME280;51070;52.236;-0.892;2022-10-16T08:19:58;100216.05;;;10.13;82.78
62928;BME280;51070;52.236;-0.892;2022-10-16T08:22:23;100212.89;;;10.17;82.83
62928;BME280;51070;52.236;-0.892;2022-10-16T08:24:48;100206.59;;;10.20;82.77
62928;BME280;51070;52.236;-0.892;2022-10-16T08:27:14;100202.83;;;10.22;82.76
62928;BME280;51070;52.236;-0.892;2022-10-16T08:29:39;100214.48;;;10.25;82.61
62928;BME280;51070;52.236;-0.892;2022-10-16T08:32:04;100218.85;;;10.27;82.50
62928;BME280;51070;52.236;-0.892;2022-10-16T08:34:30;100226.02;;;10.30;82.46
62928;BME280;51070;52.236;-0.892;2022-10-16T08:36:55;100227.52;;;10.35;82.45
62928;BME280;51070;52.236;-0.892;2022-10-16T08:39:21;100230.91;;;10.39;82.38
62928;BME280;51070;52.236;-0.892;2022-10-16T08:45:05;100243.29;;;10.51;81.79
62928;BME280;51070;52.236;-0.892;2022-10-16T08:50:26;100258.86;;;10.59;81.18
62928;BME280;51070;52.236;-0.892;2022-10-16T08:52:53;100256.20;;;10.63;81.01
62928;BME280;51070;52.236;-0.892;2022-10-16T08:58:18;100261.76;;;10.71;80.70
62928;BME280;51070;52.236;-0.892;2022-10-16T09:00:47;100268.64;;;10.77;80.70
62928;BME280;51070;52.236;-0.892;2022-10-16T09:03:17;100270.18;;;10.83;80.46
62928;BME280;51070;52.236;-0.892;2022-10-16T09:06:14;100283.14;;;10.90;79.98
62928;BME280;51070;52.236;-0.892;2022-10-16T09:12:04;100287.16;;;11.07;79.07
62928;BME280;51070;52.236;-0.892;2022-10-16T09:19:59;100282.50;;;11.23;77.82
62928;BME280;51070;52.236;-0.892;2022-10-16T09:22:27;100285.25;;;11.29;77.60
62928;BME280;51070;52.236;-0.892;2022-10-16T09:24:55;100281.29;;;11.38;77.12
62928;BME280;51070;52.236;-0.892;2022-10-16T09:27:24;100282.33;;;11.46;76.44
62928;BME280;51070;52.236;-0.892;2022-10-16T09:29:51;100288.53;;;11.53;75.72
62928;BME280;51070;52.236;-0.892;2022-10-16T09:32:20;100293.34;;;11.59;75.11
62928;BME280;51070;52.236;-0.892;2022-10-16T09:34:52;100295.03;;;11.66;73.95
62928;BME280;51070;52.236;-0.892;2022-10-16T09:37:21;100298.65;;;11.72;72.96
62928;BME280;51070;52.236;-0.892;2022-10-16T09:39:55;100303.79;;;11.77;72.24
62928;BME280;51070;52.236;-0.892;2022-10-16T09:42:32;100310.50;;;11.84;71.58
62928;BME280;51070;52.236;-0.892;2022-10-16T09:44:59;100309.41;;;11.90;70.87
62928;BME280;51070;52.236;-0.892;2022-10-16T09:47:28;100314.92;;;11.97;70.15
62928;BME280;51070;52.236;-0.892;2022-10-16T09:49:58;100312.50;;;12.05;68.30
62928;BME280;51070;52.236;-0.892;2022-10-16T09:52:28;100311.45;;;12.13;67.76
62928;BME280;51070;52.236;-0.892;2022-10-16T09:55:02;100307.45;;;12.22;67.35
62928;BME280;51070;52.236;-0.892;2022-10-16T09:57:27;100304.52;;;12.32;66.74
62928;BME280;51070;52.236;-0.892;2022-10-16T09:59:56;100302.91;;;12.39;65.39
62928;BME280;51070;52.236;-0.892;2022-10-16T10:02:48;100296.16;;;12.49;63.23
62928;BME280;51070;52.236;-0.892;2022-10-16T10:05:25;100295.63;;;13.34;62.21
62928;BME280;51070;52.236;-0.892;2022-10-16T10:08:02;100299.22;;;14.42;60.31
62928;BME280;51070;52.236;-0.892;2022-10-16T10:10:40;100299.83;;;15.36;57.91
62928;BME280;51070;52.236;-0.892;2022-10-16T10:13:20;100299.86;;;16.13;55.45
62928;BME280;51070;52.236;-0.892;2022-10-16T10:15:47;100302.09;;;16.82;53.95
62928;BME280;51070;52.236;-0.892;2022-10-16T10:18:21;100306.04;;;17.38;51.44
62928;BME280;51070;52.236;-0.892;2022-10-16T10:21:12;100312.91;;;17.89;51.12
62928;BME280;51070;52.236;-0.892;2022-10-16T10:23:40;100311.63;;;18.36;50.30
62928;BME280;51070;52.236;-0.892;2022-10-16T10:26:14;100309.59;;;18.82;49.03
62928;BME280;51070;52.236;-0.892;2022-10-16T10:28:53;100311.75;;;19.15;46.75
62928;BME280;51070;52.236;-0.892;2022-10-16T10:31:27;100315.80;;;19.12;45.89
62928;BME280;51070;52.236;-0.892;2022-10-16T10:34:30;100317.70;;;18.96;47.06
62928;BME280;51070;52.236;-0.892;2022-10-16T10:37:06;100311.81;;;18.65;46.41
62928;BME280;51070;52.236;-0.892;2022-10-16T10:39:57;100316.69;;;18.36;46.53
62928;BME280;51070;52.236;-0.892;2022-10-16T10:43:12;100319.51;;;17.99;46.42
62928;BME280;51070;52.236;-0.892;2022-10-16T10:45:46;100314.02;;;17.75;45.72
62928;BME280;51070;52.236;-0.892;2022-10-16T11:02:04;100320.77;;;16.93;48.45
62928;BME280;51070;52.236;-0.892;2022-10-16T11:07:32;100328.61;;;17.00;47.55
62928;BME280;51070;52.236;-0.892;2022-10-16T11:10:24;100329.50;;;17.07;47.50
62928;BME280;51070;52.236;-0.892;2022-10-16T11:13:32;100325.63;;;17.20;46.54
62928;BME280;51070;52.236;-0.892;2022-10-16T11:15:59;100327.40;;;17.17;44.25
62928;BME280;51070;52.236;-0.892;2022-10-16T11:21:42;100319.50;;;17.30;46.57
62928;BME280;51070;52.236;-0.892;2022-10-16T11:24:51;100315.48;;;17.37;46.50
62928;BME280;51070;52.236;-0.892;2022-10-16T11:27:15;100312.86;;;17.43;45.80
62928;BME280;51070;52.236;-0.892;2022-10-16T11:29:50;100309.20;;;17.40;44.64
62928;BME280;51070;52.236;-0.892;2022-10-16T11:32:24;100304.48;;;17.31;44.06
62928;BME280;51070;52.236;-0.892;2022-10-16T11:34:59;100305.03;;;17.21;43.44
62928;BME280;51070;52.236;-0.892;2022-10-16T11:37:29;100308.36;;;17.10;44.46
62928;BME280;51070;52.236;-0.892;2022-10-16T11:40:05;100303.46;;;17.19;45.57
62928;BME280;51070;52.236;-0.892;2022-10-16T11:42:43;100304.84;;;17.31;44.20
62928;BME280;51070;52.236;-0.892;2022-10-16T11:45:23;100304.49;;;17.27;42.78
62928;BME280;51070;52.236;-0.892;2022-10-16T11:50:43;100303.64;;;17.14;43.97
62928;BME280;51070;52.236;-0.892;2022-10-16T11:53:39;100302.58;;;17.25;44.42
62928;BME280;51070;52.236;-0.892;2022-10-16T11:56:12;100307.98;;;17.32;43.56
62928;BME280;51070;52.236;-0.892;2022-10-16T11:58:52;100302.22;;;17.29;43.22
62928;BME280;51070;52.236;-0.892;2022-10-16T12:01:30;100297.70;;;17.26;43.36
62928;BME280;51070;52.236;-0.892;2022-10-16T12:04:15;100298.90;;;17.23;43.31
62928;BME280;51070;52.236;-0.892;2022-10-16T12:06:46;100300.30;;;17.23;43.64
62928;BME280;51070;52.236;-0.892;2022-10-16T12:09:25;100299.95;;;17.24;44.01
62928;BME280;51070;52.236;-0.892;2022-10-16T12:11:51;100300.69;;;17.12;43.14
62928;BME280;51070;52.236;-0.892;2022-10-16T12:14:21;100299.98;;;17.07;43.84
62928;BME280;51070;52.236;-0.892;2022-10-16T12:16:58;100296.48;;;17.11;44.48
62928;BME280;51070;52.236;-0.892;2022-10-16T12:19:27;100301.38;;;17.10;43.92
62928;BME280;51070;52.236;-0.892;2022-10-16T12:21:56;100308.19;;;17.03;44.31
62928;BME280;51070;52.236;-0.892;2022-10-16T12:24:38;100308.19;;;16.91;44.36
62928;BME280;51070;52.236;-0.892;2022-10-16T12:27:06;100307.85;;;16.84;45.29
62928;BME280;51070;52.236;-0.892;2022-10-16T12:29:44;100301.74;;;16.84;45.85
62928;BME280;51070;52.236;-0.892;2022-10-16T12:32:35;100301.05;;;16.84;46.19
62928;BME280;51070;52.236;-0.892;2022-10-16T12:35:03;100308.37;;;16.92;46.73
62928;BME280;51070;52.236;-0.892;2022-10-16T12:39:56;100302.96;;;16.88;46.84
62928;BME280;51070;52.236;-0.892;2022-10-16T12:44:51;100307.50;;;16.90;46.95
62928;BME280;51070;52.236;-0.892;2022-10-16T12:47:37;100310.11;;;16.97;47.12
62928;BME280;51070;52.236;-0.892;2022-10-16T12:50:24;100305.23;;;17.06;47.68
62928;BME280;51070;52.236;-0.892;2022-10-16T12:52:49;100306.42;;;17.14;47.31
62928;BME280;51070;52.236;-0.892;2022-10-16T12:55:20;100308.89;;;17.06;47.38
62928;BME280;51070;52.236;-0.892;2022-10-16T13:00:29;100315.88;;;16.88;48.04
62928;BME280;51070;52.236;-0.892;2022-10-16T13:17:16;100309.23;;;17.07;49.52
62928;BME280;51070;52.236;-0.892;2022-10-16T13:19:59;100307.44;;;17.41;49.33
62928;BME280;51070;52.236;-0.892;2022-10-16T13:28:06;100309.30;;;17.75;48.51
62928;BME280;51070;52.236;-0.892;2022-10-16T13:30:53;100304.38;;;17.83;48.47
62928;BME280;51070;52.236;-0.892;2022-10-16T13:35:53;100293.13;;;17.94;48.65
62928;BME280;51070;52.236;-0.892;2022-10-16T13:38:21;100289.01;;;17.81;48.13
62928;BME280;51070;52.236;-0.892;2022-10-16T13:40:57;100287.98;;;17.76;48.53
62928;BME280;51070;52.236;-0.892;2022-10-16T13:45:59;100288.89;;;17.51;47.96
62928;BME280;51070;52.236;-0.892;2022-10-16T13:48:25;100291.04;;;17.29;47.16
62928;BME280;51070;52.236;-0.892;2022-10-16T13:51:06;100287.94;;;17.03;47.34
62928;BME280;51070;52.236;-0.892;2022-10-16T13:53:36;100282.37;;;16.83;48.12
62928;BME280;51070;52.236;-0.892;2022-10-16T13:56:07;100279.58;;;16.71;48.30
62928;BME280;51070;52.236;-0.892;2022-10-16T13:58:35;100277.29;;;16.61;48.78
62928;BME280;51070;52.236;-0.892;2022-10-16T14:01:04;100281.80;;;16.52;49.18
62928;BME280;51070;52.236;-0.892;2022-10-16T14:03:31;100280.38;;;16.42;49.21
62928;BME280;51070;52.236;-0.892;2022-10-16T14:06:03;100278.98;;;16.33;49.53
62928;BME280;51070;52.236;-0.892;2022-10-16T14:08:30;100277.39;;;16.27;49.82
62928;BME280;51070;52.236;-0.892;2022-10-16T14:10:58;100283.15;;;16.24;50.16
62928;BME280;51070;52.236;-0.892;2022-10-16T14:14:05;100279.84;;;16.23;50.09
62928;BME280;51070;52.236;-0.892;2022-10-16T14:16:30;100281.95;;;16.24;50.03
62928;BME280;51070;52.236;-0.892;2022-10-16T14:19:03;100280.89;;;16.24;50.14
62928;BME280;51070;52.236;-0.892;2022-10-16T14:21:31;100280.88;;;16.25;50.34
62928;BME280;51070;52.236;-0.892;2022-10-16T14:23:57;100285.23;;;16.22;50.18
62928;BME280;51070;52.236;-0.892;2022-10-16T14:26:26;100286.28;;;16.23;50.25
62928;BME280;51070;52.236;-0.892;2022-10-16T14:29:10;100283.33;;;16.23;50.15